Time;durP1;ratioP1;P1;durP2;ratioP2;P2;SDS_P1;SDS_P2;PMS_P1;PMS_P2;Temp;Humidity;BMP_temperature;BMP_pressure;BME280_temperature;BME280_humidity;BME280_pressure;Samples;Min_cycle;Max_cycle;Signal;HPM_P1;HPM_P2
2022/05/21 00:00:06;;;;;;;8.30;5.18;;;;;;;15.19;69.85;100037.19;4974734;28;20078;-82
2022/05/21 00:02:33;;;;;;;7.65;5.03;;;;;;;15.16;69.91;100038.25;4974086;28;20082;-85
2022/05/21 00:05:00;;;;;;;7.75;5.03;;;;;;;15.15;69.82;100033.91;4972854;28;20098;-83
2022/05/21 00:07:28;;;;;;;5.68;4.55;;;;;;;15.14;69.99;100042.78;4956561;28;20125;-85
2022/05/21 00:09:55;;;;;;;11.65;5.50;;;;;;;15.14;69.82;100052.56;4973557;28;20058;-83
2022/05/21 00:12:22;;;;;;;5.97;4.40;;;;;;;15.12;69.87;100052.69;4971697;28;20133;-82
2022/05/21 00:14:49;;;;;;;9.23;4.30;;;;;;;15.11;69.87;100051.00;4973857;28;20047;-83
2022/05/21 00:17:15;;;;;;;11.10;5.18;;;;;;;15.11;69.59;100065.06;4973357;28;20047;-85
2022/05/21 00:19:42;;;;;;;8.45;4.30;;;;;;;15.07;69.54;100053.00;4974422;28;20109;-82
2022/05/21 00:22:08;;;;;;;8.95;4.72;;;;;;;15.07;69.47;100066.25;4973394;28;20113;-82
2022/05/21 00:24:36;;;;;;;9.23;4.32;;;;;;;15.06;69.25;100058.44;4973181;28;20047;-83
2022/05/21 00:27:03;;;;;;;8.88;4.50;;;;;;;15.02;69.11;100062.25;4972813;28;20106;-83
2022/05/21 00:29:29;;;;;;;8.23;4.47;;;;;;;14.98;69.20;100064.25;4957045;28;20488;-85
2022/05/21 00:31:56;;;;;;;11.93;5.30;;;;;;;14.95;69.21;100075.94;4974257;28;20054;-82
2022/05/21 00:34:24;;;;;;;9.90;4.63;;;;;;;14.92;69.14;100070.84;4973761;28;20562;-84
2022/05/21 00:36:51;;;;;;;6.82;4.68;;;;;;;14.88;69.07;100064.06;4973298;28;20055;-83
2022/05/21 00:39:17;;;;;;;12.13;5.10;;;;;;;14.86;69.09;100065.97;4971970;28;20575;-82
2022/05/21 00:41:45;;;;;;;7.57;4.85;;;;;;;14.81;69.28;100063.63;4973702;28;20050;-84
2022/05/21 00:44:12;;;;;;;6.10;4.82;;;;;;;14.79;69.31;100062.91;4974465;28;20055;-84
2022/05/21 00:46:41;;;;;;;9.30;5.03;;;;;;;14.77;69.32;100061.31;4974140;28;20082;-84
2022/05/21 00:49:39;;;;;;;10.32;5.43;;;;;;;14.71;68.35;100054.63;4974032;28;20063;-82
2022/05/21 00:52:19;;;;;;;6.20;4.57;;;;;;;14.70;68.64;100051.09;4956437;28;20086;-82
2022/05/21 00:54:56;;;;;;;8.02;5.22;;;;;;;14.69;68.37;100054.72;4972400;28;20102;-83
2022/05/21 00:57:28;;;;;;;7.75;5.65;;;;;;;14.67;68.95;100056.63;4956665;28;20054;-83
2022/05/21 01:00:05;;;;;;;9.15;5.80;;;;;;;14.65;68.67;100057.69;4973853;28;20051;-82
2022/05/21 01:02:35;;;;;;;12.30;5.90;;;;;;;14.62;69.11;100060.56;4974558;28;20054;-84
2022/05/21 01:05:06;;;;;;;11.73;7.25;;;;;;;14.58;69.03;100060.75;4973397;28;20832;-83
2022/05/21 01:07:36;;;;;;;9.93;7.38;;;;;;;14.55;68.94;100060.13;4972859;28;20504;-81
2022/05/21 01:10:05;;;;;;;11.48;7.53;;;;;;;14.53;69.49;100054.06;4973420;28;20050;-85
2022/05/21 01:12:36;;;;;;;10.07;7.93;;;;;;;14.49;69.24;100055.25;4972770;28;20058;-83
2022/05/21 01:15:09;;;;;;;11.93;8.32;;;;;;;14.48;69.38;100050.91;4973484;28;20046;-83
2022/05/21 01:17:35;;;;;;;11.90;7.55;;;;;;;14.46;69.71;100056.31;4973037;28;20102;-85
2022/05/21 01:20:09;;;;;;;11.60;7.97;;;;;;;14.42;69.43;100041.56;4973672;28;20051;-84
2022/05/21 01:22:47;;;;;;;13.32;7.88;;;;;;;14.39;69.40;100053.22;4973510;28;20058;-83
2022/05/21 01:25:18;;;;;;;9.90;7.70;;;;;;;14.42;69.97;100049.53;4972608;28;20446;-85
2022/05/21 01:27:47;;;;;;;12.13;8.05;;;;;;;14.41;70.20;100054.00;4975222;28;20063;-83
2022/05/21 01:30:17;;;;;;;13.27;8.75;;;;;;;14.40;69.84;100054.09;4976156;28;20061;-84
2022/05/21 01:32:46;;;;;;;11.00;8.88;;;;;;;14.41;70.39;100051.34;4974335;28;20057;-84
2022/05/21 01:35:13;;;;;;;12.57;9.20;;;;;;;14.41;70.37;100048.69;4972539;28;20043;-83
2022/05/21 01:37:41;;;;;;;14.55;9.30;;;;;;;14.41;70.42;100050.47;4972423;28;20054;-83
2022/05/21 01:40:09;;;;;;;12.10;8.70;;;;;;;14.44;70.30;100052.94;4972732;28;20301;-84
2022/05/21 01:42:36;;;;;;;11.32;8.82;;;;;;;14.45;70.34;100049.31;4972247;28;20456;-82
2022/05/21 01:45:04;;;;;;;14.38;8.57;;;;;;;14.44;70.42;100045.81;4972720;28;20465;-83
2022/05/21 01:47:31;;;;;;;16.27;9.52;;;;;;;14.45;70.24;100052.81;4972555;28;20427;-82
2022/05/21 01:49:58;;;;;;;12.77;8.82;;;;;;;14.46;70.42;100051.88;4971573;28;20055;-82
2022/05/21 01:52:25;;;;;;;12.05;9.35;;;;;;;14.48;70.58;100046.47;4972040;28;20098;-83
2022/05/21 01:54:52;;;;;;;14.70;10.48;;;;;;;14.49;70.70;100045.50;4971974;28;20500;-82
2022/05/21 01:57:19;;;;;;;14.80;10.50;;;;;;;14.51;70.70;100046.25;4954680;28;20058;-82
2022/05/21 01:59:45;;;;;;;13.80;9.68;;;;;;;14.54;70.69;100043.38;4971948;28;20086;-82
2022/05/21 02:02:12;;;;;;;15.85;9.93;;;;;;;14.56;70.30;100037.97;4973558;28;20062;-83
2022/05/21 02:04:39;;;;;;;14.23;10.18;;;;;;;14.57;70.38;100043.19;4975827;28;20078;-82
2022/05/21 02:07:05;;;;;;;14.40;10.13;;;;;;;14.59;70.66;100043.06;4975826;28;20059;-82
2022/05/21 02:09:32;;;;;;;15.80;11.05;;;;;;;14.61;70.68;100043.81;4975756;28;20058;-82
2022/05/21 02:11:58;;;;;;;16.08;10.13;;;;;;;14.64;70.84;100046.25;4975213;28;20055;-83
2022/05/21 02:14:25;;;;;;;13.88;10.93;;;;;;;14.67;70.73;100039.88;4975416;28;20062;-82
2022/05/21 02:16:53;;;;;;;16.15;11.43;;;;;;;14.70;71.00;100035.22;4975625;28;20093;-84
2022/05/21 02:19:19;;;;;;;22.38;12.35;;;;;;;14.72;70.70;100027.16;4975349;28;20061;-82
2022/05/21 02:21:46;;;;;;;19.10;13.10;;;;;;;14.77;70.84;100029.53;4974077;28;20467;-83
2022/05/21 02:24:13;;;;;;;14.88;12.70;;;;;;;14.78;70.86;100021.47;4975300;28;20051;-82
2022/05/21 02:26:39;;;;;;;16.77;13.93;;;;;;;14.80;70.69;100024.84;4974986;28;20098;-82
2022/05/21 02:29:07;;;;;;;15.30;13.70;;;;;;;14.83;70.63;100023.78;4975254;28;20493;-83
2022/05/21 02:31:33;;;;;;;18.08;14.05;;;;;;;14.85;70.64;100024.53;4975020;28;20059;-82
2022/05/21 02:34:00;;;;;;;18.02;14.90;;;;;;;14.86;70.48;100015.63;4974993;28;20054;-84
2022/05/21 02:39:25;;;;;;;18.58;15.80;;;;;;;14.88;70.43;100021.66;4975280;28;20067;-80
2022/05/21 02:41:52;;;;;;;21.80;15.25;;;;;;;14.90;70.18;100019.75;4974728;28;20118;-84
2022/05/21 02:44:19;;;;;;;18.98;16.38;;;;;;;14.90;70.26;100013.59;4973696;28;20077;-83
2022/05/21 02:46:45;;;;;;;20.25;15.52;;;;;;;14.89;70.28;100012.75;4975393;28;20404;-83
2022/05/21 02:49:12;;;;;;;18.77;16.52;;;;;;;14.88;70.28;100016.34;4974912;28;20485;-84
2022/05/21 02:51:39;;;;;;;19.80;16.30;;;;;;;14.89;70.40;100007.47;4957637;28;20113;-83
2022/05/21 02:54:06;;;;;;;21.50;16.60;;;;;;;14.89;70.26;100004.81;4975280;28;20059;-83
2022/05/21 02:56:35;;;;;;;21.05;17.00;;;;;;;14.90;70.30;100001.19;4974103;28;20121;-84
2022/05/21 02:59:06;;;;;;;19.30;16.73;;;;;;;14.90;70.48;100019.75;4973562;28;20098;-82
2022/05/21 03:01:33;;;;;;;22.55;16.95;;;;;;;14.90;70.39;100019.75;4974802;28;20130;-85
2022/05/21 03:04:01;;;;;;;22.23;16.65;;;;;;;14.92;70.38;100023.13;4974683;28;20137;-84
2022/05/21 03:06:27;;;;;;;19.65;16.13;;;;;;;14.93;70.36;100023.97;4975064;28;20504;-84
2022/05/21 03:11:39;;;;;;;21.15;15.77;;;;;;;14.94;70.46;100015.94;4975063;28;20058;-83
2022/05/21 03:14:05;;;;;;;19.00;16.52;;;;;;;14.94;70.30;100015.94;4973883;28;20105;-84
2022/05/21 03:16:32;;;;;;;19.38;16.13;;;;;;;14.94;70.26;100010.63;4974622;28;20050;-83
2022/05/21 03:18:58;;;;;;;19.08;15.93;;;;;;;14.94;70.19;100007.97;4973064;28;20086;-83
2022/05/21 03:21:25;;;;;;;21.27;16.67;;;;;;;14.93;70.12;100008.06;4973046;28;20065;-82
2022/05/21 03:23:51;;;;;;;18.48;16.42;;;;;;;14.91;69.85;100016.13;4973589;28;20106;-83
2022/05/21 03:26:18;;;;;;;19.38;16.80;;;;;;;14.90;69.92;100014.44;4972932;28;20552;-84
2022/05/21 03:28:45;;;;;;;18.40;15.52;;;;;;;14.89;70.05;100010.09;4974233;28;20497;-86
2022/05/21 03:31:11;;;;;;;19.95;16.05;;;;;;;14.88;70.01;100018.16;4974223;28;20051;-83
2022/05/21 03:33:38;;;;;;;22.05;15.10;;;;;;;14.86;70.15;100005.03;4973647;28;20374;-85
2022/05/21 03:36:05;;;;;;;18.67;15.93;;;;;;;14.86;70.01;100012.97;4974025;28;20047;-84
2022/05/21 03:38:31;;;;;;;19.75;15.52;;;;;;;14.86;70.36;100020.91;4974084;28;20551;-85
2022/05/21 03:40:58;;;;;;;20.63;15.75;;;;;;;14.85;70.41;100014.75;4974014;28;20074;-83
2022/05/21 03:43:24;;;;;;;20.08;16.40;;;;;;;14.86;70.02;100018.28;4973476;28;20063;-83
2022/05/21 03:45:51;;;;;;;18.70;15.77;;;;;;;14.86;70.26;100012.97;4973821;28;20051;-85
2022/05/21 03:48:18;;;;;;;19.65;15.38;;;;;;;14.85;70.20;100008.63;4973773;28;20515;-84
2022/05/21 03:50:45;;;;;;;18.90;15.52;;;;;;;14.84;70.20;100013.06;4973407;28;20496;-84
2022/05/21 03:53:14;;;;;;;18.10;15.55;;;;;;;14.85;70.43;100017.41;4973125;28;20070;-85
2022/05/21 03:55:41;;;;;;;19.67;15.50;;;;;;;14.86;70.60;100010.31;4974261;28;20050;-86
2022/05/21 03:58:08;;;;;;;20.05;16.05;;;;;;;14.87;70.59;100009.34;4972885;28;20334;-85
2022/05/21 04:00:37;;;;;;;20.50;15.48;;;;;;;14.89;70.65;100012.75;4974251;28;20058;-86
2022/05/21 04:03:04;;;;;;;21.80;16.48;;;;;;;14.91;70.69;100007.34;4974034;28;20145;-86
2022/05/21 04:05:30;;;;;;;21.80;15.73;;;;;;;14.92;70.61;100015.16;4974314;28;20105;-87
2022/05/21 04:07:57;;;;;;;18.17;16.23;;;;;;;14.94;70.40;100020.38;4974259;28;20058;-85
2022/05/21 04:10:23;;;;;;;22.73;17.67;;;;;;;14.92;70.33;100015.16;4974297;28;20066;-85
2022/05/21 04:12:50;;;;;;;26.63;16.33;;;;;;;14.93;70.48;100018.69;4957037;28;20109;-86
2022/05/21 04:15:17;;;;;;;21.90;16.55;;;;;;;14.91;70.54;100013.47;4974172;28;20031;-87
2022/05/21 04:17:43;;;;;;;21.38;16.58;;;;;;;14.90;70.64;100032.16;4972804;28;20051;-85
2022/05/21 04:20:13;;;;;;;19.92;15.68;;;;;;;14.90;70.46;100025.06;4973708;28;20055;-82
2022/05/21 04:22:40;;;;;;;19.83;15.23;;;;;;;14.91;70.93;100016.13;4974048;28;20546;-83
2022/05/21 04:25:08;;;;;;;18.35;15.30;;;;;;;14.92;70.95;100015.16;4973547;28;20051;-83
2022/05/21 04:27:36;;;;;;;21.20;15.40;;;;;;;14.94;71.03;100013.28;4973199;28;20516;-83
2022/05/21 04:30:06;;;;;;;22.17;17.05;;;;;;;14.97;70.90;100015.72;4973679;28;20063;-84
2022/05/21 04:32:33;;;;;;;24.00;16.83;;;;;;;15.01;71.18;100020.78;4973507;28;20105;-82
2022/05/21 04:35:00;;;;;;;20.65;15.80;;;;;;;15.04;71.02;100016.13;4973314;28;20520;-83
2022/05/21 04:37:26;;;;;;;24.95;16.48;;;;;;;15.06;71.05;100022.16;4973745;28;20460;-83
2022/05/21 04:39:53;;;;;;;20.02;15.23;;;;;;;15.08;71.12;100017.59;4973248;28;20047;-84
2022/05/21 04:42:19;;;;;;;20.77;15.43;;;;;;;15.12;71.12;100020.88;4972921;28;20054;-81
2022/05/21 04:44:46;;;;;;;22.02;15.63;;;;;;;15.14;71.06;100021.59;4955688;28;20054;-82
2022/05/21 04:47:12;;;;;;;20.88;15.50;;;;;;;15.17;70.86;100025.84;4972891;28;20551;-85
2022/05/21 04:49:39;;;;;;;15.70;14.05;;;;;;;15.18;71.08;100031.00;4973037;28;20299;-84
2022/05/21 04:52:06;;;;;;;22.27;15.73;;;;;;;15.21;70.89;100022.00;4972939;28;20050;-83
2022/05/21 04:54:32;;;;;;;19.27;14.85;;;;;;;15.24;70.82;100021.78;4971904;28;20055;-83
2022/05/21 04:56:59;;;;;;;22.55;15.32;;;;;;;15.26;70.48;100026.97;4972808;28;20051;-84
2022/05/21 04:59:25;;;;;;;20.90;14.77;;;;;;;15.28;70.64;100027.72;4972082;28;20563;-84
2022/05/21 05:01:52;;;;;;;19.10;14.77;;;;;;;15.29;70.83;100034.72;4972053;28;20460;-82
2022/05/21 05:04:18;;;;;;;21.00;14.43;;;;;;;15.30;70.88;100037.25;4973690;28;20110;-84
2022/05/21 05:06:45;;;;;;;21.88;14.38;;;;;;;15.31;70.72;100038.94;4974124;28;20046;-85
2022/05/21 05:09:12;;;;;;;22.65;14.45;;;;;;;15.32;70.69;100040.63;4956388;28;20054;-83
2022/05/21 05:11:38;;;;;;;18.30;14.20;;;;;;;15.32;70.56;100032.69;4973310;28;20058;-84
2022/05/21 05:14:05;;;;;;;23.13;14.00;;;;;;;15.33;70.56;100042.31;4973991;28;20051;-82
2022/05/21 05:16:32;;;;;;;16.00;13.43;;;;;;;15.34;70.71;100029.91;4973889;28;20050;-83
2022/05/21 05:18:58;;;;;;;21.55;14.60;;;;;;;15.35;70.72;100042.22;4972749;28;20059;-82
2022/05/21 05:21:25;;;;;;;18.83;14.05;;;;;;;15.36;70.81;100031.50;4955921;28;20051;-84
2022/05/21 05:23:52;;;;;;;20.02;12.82;;;;;;;15.39;70.84;100035.72;4955436;28;20454;-84
2022/05/21 05:26:19;;;;;;;19.20;14.10;;;;;;;15.41;70.81;100039.13;4972856;28;20563;-83
2022/05/21 05:28:46;;;;;;;18.67;13.93;;;;;;;15.44;70.94;100038.88;4970603;28;20073;-84
2022/05/21 05:31:12;;;;;;;18.63;13.85;;;;;;;15.48;71.20;100042.19;4972293;28;20050;-85
2022/05/21 05:33:39;;;;;;;20.58;13.20;;;;;;;15.53;71.31;100041.81;4972503;28;20054;-83
2022/05/21 05:36:06;;;;;;;17.90;12.10;;;;;;;15.57;71.31;100048.59;4974354;28;20102;-85
2022/05/21 05:38:33;;;;;;;19.60;12.98;;;;;;;15.63;71.16;100053.47;4978419;28;20335;-83
2022/05/21 05:40:59;;;;;;;18.02;13.57;;;;;;;15.66;71.03;100042.59;4978325;28;20117;-85
2022/05/21 05:43:26;;;;;;;20.50;12.90;;;;;;;15.71;71.09;100050.25;4978379;28;20054;-85
2022/05/21 05:45:59;;;;;;;16.30;12.50;;;;;;;15.75;70.95;100052.53;4978766;28;20078;-85
2022/05/21 05:48:27;;;;;;;13.48;11.25;;;;;;;15.82;71.05;100052.09;4978657;28;20046;-86
2022/05/21 05:50:55;;;;;;;16.88;11.70;;;;;;;15.86;71.15;100062.34;4978833;28;20466;-84
2022/05/21 05:53:22;;;;;;;17.58;11.32;;;;;;;15.92;71.37;100061.06;4979222;28;20453;-84
2022/05/21 05:55:48;;;;;;;16.40;11.23;;;;;;;15.97;70.91;100061.63;4978867;28;20051;-84
2022/05/21 06:01:01;;;;;;;14.50;10.70;;;;;;;16.06;70.21;100053.88;4978837;28;20067;-86
2022/05/21 06:03:28;;;;;;;19.88;10.98;;;;;;;16.10;70.47;100060.66;4979398;28;20073;-82
2022/05/21 06:05:55;;;;;;;20.08;9.73;;;;;;;16.12;70.33;100061.41;4977904;28;20583;-84
2022/05/21 06:08:21;;;;;;;17.55;10.23;;;;;;;16.14;70.37;100072.75;4977506;28;20059;-85
2022/05/21 06:10:49;;;;;;;21.05;10.32;;;;;;;16.14;70.04;100062.97;4978429;28;20055;-86
2022/05/21 06:13:16;;;;;;;14.88;9.68;;;;;;;16.16;69.66;100057.56;4978486;28;20082;-83
2022/05/21 06:15:43;;;;;;;12.48;8.93;;;;;;;16.16;69.70;100062.88;4977690;28;20047;-85
2022/05/21 06:18:14;;;;;;;16.55;9.32;;;;;;;16.15;69.32;100074.47;4977008;28;20054;-84
2022/05/21 06:20:41;;;;;;;20.50;9.43;;;;;;;16.17;69.79;100066.34;4978101;28;20488;-84
2022/05/21 06:23:08;;;;;;;19.35;9.20;;;;;;;16.16;69.94;100070.84;4977811;28;20102;-84
2022/05/21 06:25:35;;;;;;;17.58;8.63;;;;;;;16.18;69.60;100079.53;4977145;28;20043;-84
2022/05/21 06:28:03;;;;;;;13.90;7.90;;;;;;;16.19;69.60;100072.41;4978913;28;20063;-85
2022/05/21 06:30:32;;;;;;;16.45;8.32;;;;;;;16.19;69.32;100075.06;4978275;28;20500;-84
2022/05/21 06:33:09;;;;;;;14.70;7.53;;;;;;;16.20;69.53;100077.63;4978391;28;20073;-84
2022/05/21 06:35:36;;;;;;;10.80;7.53;;;;;;;16.23;69.66;100084.50;4976552;28;20105;-85
2022/05/21 06:38:04;;;;;;;15.25;7.38;;;;;;;16.24;69.96;100087.03;4976910;28;20109;-84
2022/05/21 06:40:30;;;;;;;13.38;7.38;;;;;;;16.25;69.71;100080.75;4978135;28;20050;-84
2022/05/21 06:43:00;;;;;;;12.88;6.70;;;;;;;16.30;69.95;100082.22;4980072;28;20055;-85
2022/05/21 06:45:32;;;;;;;16.95;7.57;;;;;;;16.32;69.29;100088.25;4977599;28;20055;-85
2022/05/21 06:48:04;;;;;;;13.90;7.33;;;;;;;16.38;69.85;100080.66;4976423;28;20051;-84
2022/05/21 06:50:30;;;;;;;14.10;8.02;;;;;;;16.43;69.54;100085.63;4975768;28;20054;-83
2022/05/21 06:52:57;;;;;;;16.85;7.40;;;;;;;16.47;69.79;100089.75;4975768;28;20502;-88
2022/05/21 06:55:25;;;;;;;13.23;7.47;;;;;;;16.51;69.53;100085.03;4958200;28;20133;-86
2022/05/21 06:57:52;;;;;;;13.52;6.90;;;;;;;16.56;69.45;100096.16;4973979;28;20047;-87
2022/05/21 07:00:23;;;;;;;16.63;7.95;;;;;;;16.60;69.42;100096.78;4975159;28;20051;-84
2022/05/21 07:02:52;;;;;;;13.65;7.00;;;;;;;16.64;69.58;100096.41;4975155;28;20050;-86
2022/05/21 07:08:21;;;;;;;12.65;7.45;;;;;;;16.73;67.78;100101.97;4976026;28;20059;-86
2022/05/21 07:10:48;;;;;;;15.40;7.22;;;;;;;16.80;69.25;100101.41;4974459;28;20523;-87
2022/05/21 07:13:16;;;;;;;16.38;6.60;;;;;;;16.84;69.13;100099.34;4974415;28;20113;-84
2022/05/21 07:15:43;;;;;;;12.30;7.45;;;;;;;16.90;69.24;100108.66;4975864;28;20389;-87
2022/05/21 07:18:12;;;;;;;16.73;7.97;;;;;;;16.95;68.92;100117.13;4976137;28;20055;-85
2022/05/21 07:20:39;;;;;;;15.32;7.57;;;;;;;17.00;68.80;100114.94;4976332;28;20051;-85
2022/05/21 07:23:06;;;;;;;18.70;8.10;;;;;;;17.05;68.99;100114.63;4975732;28;20055;-87
2022/05/21 07:25:32;;;;;;;15.35;7.28;;;;;;;17.12;68.51;100114.97;4975514;28;20058;-87
2022/05/21 07:27:59;;;;;;;18.08;7.22;;;;;;;17.17;68.90;100123.44;4957942;28;20061;-87
2022/05/21 07:30:27;;;;;;;14.63;6.57;;;;;;;17.23;68.48;100114.97;4976000;28;20073;-86
2022/05/21 07:32:55;;;;;;;11.38;6.13;;;;;;;17.31;68.65;100125.00;4958609;28;20125;-86
2022/05/21 07:35:24;;;;;;;13.40;6.53;;;;;;;17.38;68.58;100142.16;4976899;28;20055;-87
2022/05/21 07:37:51;;;;;;;13.40;5.93;;;;;;;17.47;68.19;100116.63;4975830;28;20101;-86
2022/05/21 07:40:21;;;;;;;12.27;6.07;;;;;;;17.54;68.31;100115.16;4975596;28;20542;-86
2022/05/21 07:42:48;;;;;;;11.77;5.95;;;;;;;17.64;68.45;100122.41;4975136;28;20513;-85
2022/05/21 07:45:17;;;;;;;11.48;5.22;;;;;;;17.70;66.67;100116.56;4975930;28;20050;-86
2022/05/21 07:47:44;;;;;;;11.48;5.32;;;;;;;17.79;68.20;100131.81;4975819;28;20047;-86
2022/05/21 07:50:11;;;;;;;11.02;4.60;;;;;;;17.86;67.91;100126.81;4974604;28;20061;-85
2022/05/21 07:52:38;;;;;;;11.02;4.75;;;;;;;17.94;67.78;100131.53;4973458;28;20110;-85
2022/05/21 07:55:07;;;;;;;9.23;4.75;;;;;;;18.00;66.29;100120.34;4957683;28;20051;-86
2022/05/21 07:57:33;;;;;;;8.45;4.10;;;;;;;18.07;66.48;100144.66;4975303;28;20050;-86
2022/05/21 08:00:03;;;;;;;8.85;4.32;;;;;;;18.12;65.89;100128.34;4975408;28;20055;-85
2022/05/21 08:02:30;;;;;;;13.05;4.65;;;;;;;18.13;65.73;100125.53;4974705;28;20051;-85
2022/05/21 08:04:56;;;;;;;10.13;4.15;;;;;;;18.17;65.23;100126.97;4959427;28;20520;-84
2022/05/21 08:07:23;;;;;;;7.03;3.55;;;;;;;18.21;65.73;100133.72;4975657;28;20448;-85
2022/05/21 08:09:49;;;;;;;8.75;3.83;;;;;;;18.26;65.44;100143.16;4975196;28;20054;-87
2022/05/21 08:12:17;;;;;;;10.02;4.20;;;;;;;18.31;65.66;100132.97;4975365;28;20082;-85
2022/05/21 08:14:44;;;;;;;13.05;4.35;;;;;;;18.36;65.50;100142.25;4975043;28;20054;-87
2022/05/21 08:17:12;;;;;;;7.72;3.00;;;;;;;18.42;65.16;100140.06;4975114;28;20461;-87
2022/05/21 08:19:40;;;;;;;9.85;3.10;;;;;;;18.51;65.13;100146.44;4975161;28;20054;-84
2022/05/21 08:27:37;;;;;;;9.40;2.78;;;;;;;18.78;65.91;100140.59;4976227;28;20168;-86
2022/05/21 08:30:04;;;;;;;9.52;2.75;;;;;;;18.88;64.97;100141.47;4973906;28;20063;-87
2022/05/21 08:32:31;;;;;;;8.35;2.50;;;;;;;18.95;63.89;100138.28;4974420;28;20057;-86
2022/05/21 08:34:59;;;;;;;11.77;2.75;;;;;;;18.98;62.52;100146.00;4974816;28;20125;-85
2022/05/21 08:37:27;;;;;;;9.73;3.28;;;;;;;18.96;62.89;100162.16;4975594;28;20047;-86
2022/05/21 08:39:54;;;;;;;8.70;2.83;;;;;;;18.91;62.82;100160.88;4975136;28;20058;-88
2022/05/21 08:42:26;;;;;;;8.60;2.97;;;;;;;18.84;62.02;100155.22;4975695;28;20125;-87
2022/05/21 08:45:05;;;;;;;16.67;3.28;;;;;;;18.84;61.51;100150.72;4975027;28;20054;-85
2022/05/21 08:47:37;;;;;;;11.88;3.15;;;;;;;18.87;61.60;100154.94;4975147;28;20050;-83
2022/05/21 08:50:13;;;;;;;7.35;2.45;;;;;;;18.92;61.84;100166.06;4973873;28;20055;-85
2022/05/21 08:52:57;;;;;;;8.32;3.03;;;;;;;18.91;58.44;100160.88;4975279;28;20465;-85
2022/05/21 08:55:52;;;;;;;8.18;2.70;;;;;;;18.89;60.69;100161.81;4974545;28;20055;-84
2022/05/21 08:58:38;;;;;;;8.02;2.72;;;;;;;18.94;62.09;100168.59;4972503;28;20047;-87
2022/05/21 09:01:05;;;;;;;8.00;2.97;;;;;;;18.96;63.08;100158.66;4973396;28;20050;-86
2022/05/21 09:03:31;;;;;;;9.95;3.20;;;;;;;18.96;62.85;100167.50;4955923;28;20090;-84
2022/05/21 09:06:05;;;;;;;8.45;2.58;;;;;;;18.95;60.60;100171.13;4972232;28;20058;-85
2022/05/21 09:08:44;;;;;;;8.27;2.65;;;;;;;18.99;61.30;100174.41;4956601;28;20063;-83
2022/05/21 09:11:17;;;;;;;10.68;3.13;;;;;;;19.06;61.97;100174.75;4955153;28;20058;-83
2022/05/21 09:14:07;;;;;;;9.27;3.00;;;;;;;19.12;61.62;100180.38;4973741;28;20101;-83
2022/05/21 09:16:55;;;;;;;8.68;2.50;;;;;;;19.18;61.06;100172.81;4973277;28;20176;-86
2022/05/21 09:19:32;;;;;;;9.88;2.65;;;;;;;19.24;62.37;100178.47;4973099;28;20154;-84
2022/05/21 09:22:05;;;;;;;5.55;2.50;;;;;;;19.26;61.59;100175.66;4972672;28;20556;-85
2022/05/21 09:24:49;;;;;;;11.35;3.47;;;;;;;19.35;63.16;100179.34;4972286;28;20122;-86
2022/05/21 09:27:34;;;;;;;7.30;2.53;;;;;;;19.46;61.81;100167.72;4955959;28;20089;-85
2022/05/21 09:30:20;;;;;;;8.07;2.50;;;;;;;19.59;61.11;100172.84;4955682;28;20090;-85
2022/05/21 09:32:52;;;;;;;7.47;2.97;;;;;;;19.73;62.37;100187.63;4973884;28;20051;-85
2022/05/21 09:35:29;;;;;;;8.33;2.30;;;;;;;19.82;59.34;100185.94;4973037;28;20046;-86
2022/05/21 09:38:11;;;;;;;12.77;2.60;;;;;;;19.96;61.56;100187.41;4974305;28;20101;-84
2022/05/21 09:40:39;;;;;;;10.68;2.78;;;;;;;20.09;62.84;100184.47;4972031;28;20109;-82
2022/05/21 09:46:26;;;;;;;9.25;2.75;;;;;;;20.34;59.38;100179.56;4972735;28;20058;-87
2022/05/21 09:49:11;;;;;;;12.45;2.75;;;;;;;20.46;60.17;100189.13;4973206;28;20461;-85
2022/05/21 09:51:40;;;;;;;9.13;2.50;;;;;;;20.49;59.99;100193.34;4973008;28;20055;-85
2022/05/21 09:54:21;;;;;;;7.80;2.40;;;;;;;20.42;58.17;100198.44;4972802;28;20061;-84
2022/05/21 09:56:54;;;;;;;7.10;2.47;;;;;;;20.42;59.00;100196.56;4955840;28;20054;-85
2022/05/21 09:59:25;;;;;;;;;;;;;;;20.42;60.46;100195.75;4974485;28;20440;-84
2022/05/21 10:01:57;;;;;;;8.35;2.55;;;;;;;20.49;60.02;100183.50;4973024;28;19973;-87
2022/05/21 10:04:45;;;;;;;6.63;2.08;;;;;;;20.53;59.35;100182.22;4974069;28;20062;-86
2022/05/21 10:13:11;;;;;;;8.65;2.38;;;;;;;20.79;59.91;100197.66;4974272;28;20058;-85
2022/05/21 10:15:46;;;;;;;7.22;2.50;;;;;;;20.77;57.78;100198.81;4974210;28;20101;-86
2022/05/21 10:18:50;;;;;;;5.00;1.90;;;;;;;20.73;57.59;100202.75;4973463;28;20043;-86
2022/05/21 10:21:59;;;;;;;6.88;2.28;;;;;;;20.69;55.60;100204.88;4928138;28;20406;-85
2022/05/21 10:24:49;;;;;;;10.13;2.45;;;;;;;20.72;57.34;100209.09;4960411;28;20050;-86
2022/05/21 10:27:38;;;;;;;9.20;2.97;;;;;;;20.77;58.52;100213.03;4961396;28;20070;-86
2022/05/21 10:30:30;;;;;;;8.80;2.60;;;;;;;20.80;57.73;100217.25;4978136;28;20146;-86
2022/05/21 10:33:08;;;;;;;6.85;2.47;;;;;;;20.87;55.17;100213.06;4977275;28;20051;-85
2022/05/21 10:36:04;;;;;;;11.65;2.50;;;;;;;20.90;57.98;100210.06;4976410;28;20050;-86
2022/05/21 10:39:23;;;;;;;7.13;2.40;;;;;;;21.03;58.21;100217.81;4967607;28;20089;-86
2022/05/21 10:42:11;;;;;;;5.03;1.80;;;;;;;21.24;55.10;100218.59;4976553;28;20051;-87
2022/05/21 10:45:04;;;;;;;8.63;2.03;;;;;;;21.41;58.43;100217.81;4977887;28;20055;-86
2022/05/21 10:47:41;;;;;;;6.53;2.20;;;;;;;21.53;55.56;100234.53;4956262;28;20046;-85
2022/05/21 10:50:31;;;;;;;8.98;2.58;;;;;;;21.54;54.42;100206.78;4975410;28;20413;-86
2022/05/21 10:53:03;;;;;;;9.48;2.05;;;;;;;21.61;56.70;100223.09;4976515;28;20054;-86
2022/05/21 10:55:44;;;;;;;9.00;2.25;;;;;;;21.53;53.36;100215.78;4959199;28;20058;-86
2022/05/21 10:58:41;;;;;;;8.13;2.50;;;;;;;21.46;53.65;100217.38;4974565;28;20105;-86
2022/05/21 11:01:26;;;;;;;6.95;1.85;;;;;;;21.45;55.86;100215.69;4974399;28;20063;-86
2022/05/21 11:04:08;;;;;;;9.07;2.30;;;;;;;21.37;56.22;100221.78;4957637;28;20428;-87
2022/05/21 11:07:02;;;;;;;7.10;2.00;;;;;;;21.27;53.60;100218.31;4957503;28;20443;-87
2022/05/21 11:09:35;;;;;;;7.65;1.83;;;;;;;21.23;54.09;100215.06;4974328;28;20493;-85
2022/05/21 11:12:08;;;;;;;8.20;2.22;;;;;;;21.15;52.95;100207.75;4973939;28;20347;-86
2022/05/21 11:14:45;;;;;;;6.57;1.85;;;;;;;21.11;54.91;100208.22;4974818;28;20059;-86
2022/05/21 11:17:23;;;;;;;7.03;2.00;;;;;;;20.97;52.90;100210.34;4974539;28;20046;-86
2022/05/21 11:19:59;;;;;;;6.00;1.58;;;;;;;20.85;52.56;100219.50;4973172;28;20547;-87
2022/05/21 11:22:34;;;;;;;7.38;2.10;;;;;;;20.73;52.97;100219.66;4974236;28;20058;-86
2022/05/21 11:25:19;;;;;;;5.82;1.77;;;;;;;20.62;53.16;100223.31;4973502;28;20054;-86
2022/05/21 11:27:54;;;;;;;5.22;1.70;;;;;;;20.59;53.50;100218.25;4975031;28;20043;-86
2022/05/21 11:30:21;;;;;;;7.57;1.80;;;;;;;20.54;55.17;100210.66;4975725;28;20058;-87
2022/05/21 11:38:48;;;;;;;6.97;1.98;;;;;;;20.37;55.40;100224.75;4974075;28;20046;-86
2022/05/21 11:41:29;;;;;;;5.20;1.48;;;;;;;20.34;55.59;100225.00;4955998;28;20508;-84
2022/05/21 11:44:55;;;;;;;6.65;2.00;;;;;;;20.29;55.63;100220.94;4956073;28;20558;-86
2022/05/21 11:46:46;;;;;;;9.60;2.13;;;;;;;20.28;55.90;100229.09;4973613;28;20051;-86
2022/05/21 11:49:43;;;;;;;6.70;1.60;;;;;;;20.24;55.13;100225.00;4957021;28;20050;-85
2022/05/21 11:52:27;;;;;;;4.72;1.45;;;;;;;20.34;55.37;100222.34;4956024;28;20085;-85
2022/05/21 11:54:54;;;;;;;6.53;1.80;;;;;;;20.52;57.63;100225.16;4958293;28;20055;-86
2022/05/21 11:57:37;;;;;;;5.78;1.73;;;;;;;20.62;55.47;100217.97;4973661;28;20058;-86
2022/05/21 12:00:05;;;;;;;5.10;1.65;;;;;;;20.80;56.67;100223.47;4957945;28;20062;-86
2022/05/21 12:02:35;;;;;;;7.00;1.63;;;;;;;20.87;53.93;100233.56;4956928;28;20061;-87
2022/05/21 12:05:08;;;;;;;5.38;1.30;;;;;;;20.90;54.16;100234.16;4972303;28;20085;-86